Time;durP1;ratioP1;P1;durP2;ratioP2;P2;SDS_P1;SDS_P2;PMS_P1;PMS_P2;Temp;Humidity;BMP_temperature;BMP_pressure;BME280_temperature;BME280_humidity;BME280_pressure;Samples;Min_cycle;Max_cycle;Signal;HPM_P1;HPM_P2
2022/04/14 00:00:56;;;;;;;13.05;6.20;;;13.10;99.90;;;;;;5034156;28;20040;-60
2022/04/14 00:03:22;;;;;;;11.65;5.95;;;12.90;99.90;;;;;;5032475;28;20037;-59
2022/04/14 00:05:48;;;;;;;12.45;6.18;;;13.00;99.90;;;;;;5031859;28;20068;-59
2022/04/14 00:08:13;;;;;;;14.88;7.43;;;13.10;99.90;;;;;;5033565;28;20017;-59
2022/04/14 00:10:39;;;;;;;15.05;7.38;;;12.50;99.90;;;;;;5034023;28;20520;-59
2022/04/14 00:13:05;;;;;;;13.95;7.03;;;13.50;99.90;;;;;;5034325;28;20088;-60
2022/04/14 00:15:30;;;;;;;13.18;6.45;;;13.40;99.90;;;;;;5033289;28;20036;-59
2022/04/14 00:17:56;;;;;;;15.93;8.00;;;13.10;99.90;;;;;;5030296;28;20441;-59
2022/04/14 00:20:23;;;;;;;18.30;8.70;;;12.70;99.90;;;;;;5035789;28;20030;-59
2022/04/14 00:22:49;;;;;;;14.85;7.85;;;12.80;99.90;;;;;;5033866;28;20041;-59
2022/04/14 00:25:15;;;;;;;16.52;9.00;;;12.60;99.90;;;;;;5033860;28;20033;-59
2022/04/14 00:27:41;;;;;;;10.48;5.88;;;13.10;99.90;;;;;;5033886;28;20056;-60
2022/04/14 00:30:07;;;;;;;11.52;5.45;;;13.00;99.90;;;;;;5028511;28;20057;-59
2022/04/14 00:32:34;;;;;;;11.88;5.80;;;13.10;99.90;;;;;;5035156;28;20022;-59
2022/04/14 00:35:00;;;;;;;9.85;6.00;;;13.50;99.90;;;;;;5034155;28;20116;-59
2022/04/14 00:37:26;;;;;;;11.18;6.10;;;12.90;99.90;;;;;;5033264;28;20148;-60
2022/04/14 00:39:52;;;;;;;12.18;6.88;;;12.80;99.90;;;;;;5033901;28;20036;-59
2022/04/14 00:42:18;;;;;;;13.85;7.20;;;12.30;99.90;;;;;;5031347;28;20532;-59
2022/04/14 00:44:43;;;;;;;11.93;6.80;;;12.80;99.90;;;;;;5032571;28;20049;-59
2022/04/14 00:47:12;;;;;;;13.63;6.80;;;12.80;99.90;;;;;;5035337;28;20025;-59
2022/04/14 00:49:39;;;;;;;11.48;6.57;;;12.10;99.90;;;;;;5033506;28;20569;-59
2022/04/14 00:52:05;;;;;;;13.45;7.78;;;12.70;99.90;;;;;;5033535;28;20048;-60
2022/04/14 00:54:32;;;;;;;15.05;6.97;;;12.60;99.90;;;;;;5032836;28;20033;-60
2022/04/14 00:56:59;;;;;;;13.27;7.20;;;12.40;99.90;;;;;;5029241;28;20025;-59
2022/04/14 00:59:26;;;;;;;12.70;7.20;;;11.80;99.90;;;;;;5036222;28;20033;-60
2022/04/14 01:01:53;;;;;;;17.15;7.00;;;12.90;99.90;;;;;;5036740;28;20024;-59
2022/04/14 01:04:19;;;;;;;14.85;7.40;;;12.00;99.90;;;;;;5035372;28;20477;-60
2022/04/14 01:06:46;;;;;;;14.50;7.30;;;12.50;99.90;;;;;;5036791;28;20067;-59
2022/04/14 01:09:16;;;;;;;12.70;6.72;;;12.50;99.90;;;;;;5032926;28;20153;-59
2022/04/14 01:11:44;;;;;;;14.23;7.63;;;12.20;99.90;;;;;;5036396;28;20078;-60
2022/04/14 01:14:28;;;;;;;11.80;7.65;;;12.30;99.90;;;;;;5036210;28;20037;-59
2022/04/14 01:16:57;;;;;;;12.00;7.18;;;12.20;99.90;;;;;;5037095;28;20076;-60
2022/04/14 01:19:23;;;;;;;11.15;7.43;;;12.00;99.90;;;;;;5037321;28;20505;-59
2022/04/14 01:21:59;;;;;;;11.40;7.95;;;12.30;99.90;;;;;;5036593;28;20017;-60
2022/04/14 01:24:25;;;;;;;15.98;9.32;;;12.00;99.90;;;;;;5034253;28;20529;-59
2022/04/14 01:26:51;;;;;;;14.43;8.50;;;12.10;99.90;;;;;;5034016;28;20474;-59
2022/04/14 01:29:24;;;;;;;11.27;7.20;;;12.20;99.90;;;;;;5038837;28;20116;-59
2022/04/14 01:31:51;;;;;;;15.40;8.10;;;12.20;99.90;;;;;;5036823;28;20021;-59
2022/04/14 01:34:17;;;;;;;13.02;8.30;;;12.10;99.90;;;;;;5036611;28;20072;-59
2022/04/14 01:36:43;;;;;;;15.45;8.38;;;12.00;99.90;;;;;;5036143;28;20129;-59
2022/04/14 01:39:11;;;;;;;11.23;6.82;;;11.90;99.90;;;;;;5032937;28;20113;-59
2022/04/14 01:41:40;;;;;;;15.93;8.63;;;11.90;99.90;;;;;;5037321;28;20053;-60
2022/04/14 01:44:06;;;;;;;13.65;8.20;;;11.90;99.90;;;;;;5036092;28;20521;-59
2022/04/14 01:46:33;;;;;;;11.02;7.30;;;11.80;99.90;;;;;;5035303;28;20056;-60
2022/04/14 01:48:59;;;;;;;13.70;7.85;;;11.70;99.90;;;;;;5035019;28;20401;-59
2022/04/14 01:51:28;;;;;;;14.82;7.82;;;11.70;99.90;;;;;;5033275;28;20033;-59
2022/04/14 01:53:54;;;;;;;15.48;7.25;;;11.70;99.90;;;;;;5032980;28;20045;-59
2022/04/14 01:56:21;;;;;;;13.60;7.05;;;11.70;99.90;;;;;;5038392;28;20036;-60
2022/04/14 01:58:48;;;;;;;11.50;6.78;;;11.70;99.90;;;;;;5036615;28;20434;-59
2022/04/14 02:01:14;;;;;;;10.63;6.70;;;11.60;99.90;;;;;;5036457;28;20482;-59
2022/04/14 02:03:39;;;;;;;12.98;7.35;;;11.60;99.90;;;;;;5035973;28;20043;-59
2022/04/14 02:06:05;;;;;;;13.52;7.20;;;11.60;99.90;;;;;;5032032;28;20084;-59
2022/04/14 02:08:31;;;;;;;12.15;7.57;;;11.50;99.90;;;;;;5037951;28;20067;-59
2022/04/14 02:10:57;;;;;;;14.20;7.07;;;11.50;99.90;;;;;;5035332;28;20044;-60
2022/04/14 02:13:22;;;;;;;11.95;7.13;;;11.50;99.90;;;;;;5035801;28;20486;-60
2022/04/14 02:15:48;;;;;;;13.00;7.07;;;11.40;99.90;;;;;;5034575;28;20075;-59
2022/04/14 02:18:14;;;;;;;14.02;7.47;;;11.40;99.90;;;;;;5032855;28;20057;-59
2022/04/14 02:20:40;;;;;;;13.63;7.20;;;11.50;99.90;;;;;;5035591;28;20044;-60
2022/04/14 02:23:05;;;;;;;14.60;8.20;;;11.40;99.90;;;;;;5036492;28;20025;-59
2022/04/14 02:25:31;;;;;;;17.00;7.22;;;11.50;99.90;;;;;;5035873;28;20026;-59
2022/04/14 02:27:57;;;;;;;10.35;6.60;;;11.40;99.90;;;;;;5034261;28;20029;-59
2022/04/14 02:30:23;;;;;;;12.95;7.68;;;11.20;99.90;;;;;;5032794;28;20033;-59
2022/04/14 02:32:48;;;;;;;13.32;7.40;;;11.30;99.90;;;;;;5033333;28;20441;-59
2022/04/14 02:35:15;;;;;;;12.45;7.57;;;11.30;99.90;;;;;;5035051;28;20053;-59
2022/04/14 02:37:40;;;;;;;11.68;7.65;;;11.40;99.90;;;;;;5035466;28;20120;-59
2022/04/14 02:40:07;;;;;;;11.43;6.68;;;11.40;99.90;;;;;;5035511;28;20466;-59
2022/04/14 02:42:32;;;;;;;12.60;7.50;;;11.40;99.90;;;;;;5034844;28;20021;-60
2022/04/14 02:44:58;;;;;;;13.73;7.55;;;11.40;99.90;;;;;;5031650;28;20072;-59
2022/04/14 02:47:24;;;;;;;13.90;7.20;;;11.40;99.90;;;;;;5037748;28;20025;-59
2022/04/14 02:49:50;;;;;;;13.20;7.63;;;11.40;99.90;;;;;;5034905;28;20026;-59
2022/04/14 02:52:15;;;;;;;11.95;7.25;;;11.40;99.90;;;;;;5033939;28;20029;-59
2022/04/14 02:54:41;;;;;;;15.60;8.05;;;11.40;99.90;;;;;;5035548;28;20079;-59
2022/04/14 02:57:08;;;;;;;11.95;7.28;;;11.30;99.90;;;;;;5031167;28;20026;-59
2022/04/14 02:59:35;;;;;;;12.60;8.43;;;11.40;99.90;;;;;;5036509;28;20045;-59
2022/04/14 03:02:01;;;;;;;13.02;7.85;;;11.50;99.90;;;;;;5033007;28;20097;-59
2022/04/14 03:04:29;;;;;;;10.13;8.57;;;11.40;99.90;;;;;;5035031;28;20079;-59
2022/04/14 03:06:55;;;;;;;13.85;7.55;;;11.40;99.90;;;;;;5033504;28;20032;-59
2022/04/14 03:09:21;;;;;;;12.23;7.65;;;11.50;99.90;;;;;;5031762;28;20030;-59
2022/04/14 03:11:47;;;;;;;13.75;7.65;;;11.40;99.90;;;;;;5033108;28;20497;-59
2022/04/14 03:14:13;;;;;;;12.80;7.82;;;11.50;99.90;;;;;;5036414;28;20033;-59
2022/04/14 03:16:38;;;;;;;16.25;8.27;;;11.40;99.90;;;;;;5034400;28;20029;-59
2022/04/14 03:19:04;;;;;;;11.30;7.75;;;11.40;99.90;;;;;;5034630;28;20034;-59
2022/04/14 03:21:30;;;;;;;11.70;7.47;;;11.40;99.90;;;;;;5033868;28;20120;-59
2022/04/14 03:23:56;;;;;;;11.50;7.88;;;11.30;99.90;;;;;;5030969;28;20038;-59
2022/04/14 03:26:21;;;;;;;13.95;8.48;;;11.30;99.90;;;;;;5036283;28;20466;-59
2022/04/14 03:28:47;;;;;;;13.77;7.50;;;11.20;99.90;;;;;;5034195;28;20030;-59
2022/04/14 03:31:13;;;;;;;13.75;7.88;;;11.30;99.90;;;;;;5032682;28;20030;-59
2022/04/14 03:33:39;;;;;;;14.48;8.10;;;11.20;99.90;;;;;;5034405;28;20123;-59
2022/04/14 03:36:05;;;;;;;11.80;8.60;;;11.30;99.90;;;;;;5030042;28;20088;-59
2022/04/14 03:38:31;;;;;;;13.85;8.88;;;11.30;99.90;;;;;;5036327;28;20112;-59
2022/04/14 03:40:59;;;;;;;12.60;8.88;;;11.30;99.90;;;;;;5034370;28;20026;-59
2022/04/14 03:43:25;;;;;;;14.75;10.75;;;11.20;99.90;;;;;;5034538;28;20100;-59
2022/04/14 03:45:51;;;;;;;21.08;9.75;;;11.20;99.90;;;;;;5032495;28;20481;-59
2022/04/14 03:48:17;;;;;;;15.95;10.15;;;11.20;99.90;;;;;;5030159;28;20071;-59
2022/04/14 03:50:43;;;;;;;15.90;8.98;;;11.20;99.90;;;;;;5033572;28;20029;-59
2022/04/14 03:53:09;;;;;;;13.30;9.00;;;11.10;99.90;;;;;;5035531;28;20124;-60
2022/04/14 03:55:34;;;;;;;13.02;9.38;;;11.00;99.90;;;;;;5034189;28;20032;-59
2022/04/14 03:58:00;;;;;;;13.77;9.00;;;11.00;99.90;;;;;;5034152;28;20104;-59
2022/04/14 04:00:26;;;;;;;14.60;9.23;;;11.00;99.90;;;;;;5031193;28;20029;-59
2022/04/14 04:02:51;;;;;;;14.10;9.25;;;10.90;99.90;;;;;;5031095;28;20044;-59
2022/04/14 04:05:17;;;;;;;16.92;11.25;;;11.00;99.90;;;;;;5036466;28;20031;-59
2022/04/14 04:07:43;;;;;;;14.63;10.05;;;10.80;99.90;;;;;;5034099;28;20034;-59
2022/04/14 04:10:09;;;;;;;12.38;8.77;;;10.70;99.90;;;;;;5033756;28;20436;-59
2022/04/14 04:12:34;;;;;;;14.05;9.57;;;10.60;99.90;;;;;;5033847;28;20064;-59
2022/04/14 04:15:00;;;;;;;14.52;9.35;;;10.50;99.90;;;;;;5029452;28;20050;-59
2022/04/14 04:17:26;;;;;;;13.75;9.20;;;10.50;99.90;;;;;;5035903;28;20022;-59
2022/04/14 04:19:52;;;;;;;11.98;8.60;;;10.50;99.90;;;;;;5034160;28;20037;-59
2022/04/14 04:22:17;;;;;;;11.60;9.00;;;10.60;99.90;;;;;;5034338;28;20029;-59
2022/04/14 04:24:43;;;;;;;15.52;10.10;;;10.40;99.90;;;;;;5032627;28;20087;-59
2022/04/14 04:27:09;;;;;;;18.65;9.95;;;10.40;99.90;;;;;;5028765;28;20048;-59
2022/04/14 04:29:35;;;;;;;10.73;8.60;;;10.30;99.90;;;;;;5034578;28;20453;-59
2022/04/14 04:32:00;;;;;;;17.13;10.25;;;10.20;99.90;;;;;;5034737;28;20025;-59
2022/04/14 04:34:26;;;;;;;16.40;10.90;;;10.30;99.90;;;;;;5035858;28;20044;-59
2022/04/14 04:36:52;;;;;;;15.80;10.43;;;10.40;99.90;;;;;;5037669;28;20124;-59
2022/04/14 04:39:18;;;;;;;15.63;10.85;;;10.30;99.90;;;;;;5035414;28;20036;-59
2022/04/14 04:41:44;;;;;;;15.80;9.15;;;10.10;99.90;;;;;;5036472;28;20014;-59
2022/04/14 04:44:09;;;;;;;15.10;10.10;;;10.10;99.90;;;;;;5038661;28;20032;-59
2022/04/14 04:46:35;;;;;;;18.05;10.95;;;10.10;99.90;;;;;;5037662;28;20030;-59
2022/04/14 04:49:01;;;;;;;16.98;9.77;;;10.10;99.90;;;;;;5037543;28;20456;-59
2022/04/14 04:51:27;;;;;;;14.65;9.35;;;10.10;99.90;;;;;;5036757;28;20017;-59
2022/04/14 04:53:54;;;;;;;15.32;10.95;;;9.90;99.90;;;;;;5034153;28;20049;-59
2022/04/14 04:56:19;;;;;;;15.90;9.07;;;10.00;99.90;;;;;;5039285;28;20037;-59
2022/04/14 04:58:45;;;;;;;17.42;11.30;;;10.10;99.90;;;;;;5037065;28;20033;-61
2022/04/14 05:01:12;;;;;;;21.77;14.82;;;10.20;99.90;;;;;;5037235;28;20050;-59
2022/04/14 05:03:38;;;;;;;20.15;14.48;;;10.10;99.90;;;;;;5035924;28;20033;-60
2022/04/14 05:06:04;;;;;;;15.48;12.55;;;10.10;99.90;;;;;;5031955;28;20028;-59
2022/04/14 05:08:29;;;;;;;16.60;13.77;;;9.90;99.90;;;;;;5039073;28;20029;-59
2022/04/14 05:10:55;;;;;;;20.63;15.95;;;9.80;99.90;;;;;;5037147;28;20049;-59
2022/04/14 05:13:21;;;;;;;17.48;14.73;;;9.90;99.90;;;;;;5036592;28;20052;-60
2022/04/14 05:15:47;;;;;;;16.88;12.23;;;9.90;99.90;;;;;;5036935;28;20516;-59
2022/04/14 05:18:12;;;;;;;20.77;13.93;;;9.90;99.90;;;;;;5033876;28;20546;-59
2022/04/14 05:20:40;;;;;;;18.00;12.65;;;10.00;99.90;;;;;;5037385;28;20063;-59
2022/04/14 05:23:09;;;;;;;16.77;11.82;;;10.00;99.90;;;;;;5037729;28;20064;-58
2022/04/14 05:25:36;;;;;;;21.50;13.93;;;9.80;99.90;;;;;;5036665;28;20083;-59
2022/04/14 05:28:01;;;;;;;18.48;13.50;;;9.70;99.90;;;;;;5036850;28;20572;-59
2022/04/14 05:30:27;;;;;;;24.40;16.25;;;9.70;99.90;;;;;;5035694;28;20025;-59
2022/04/14 05:32:53;;;;;;;32.92;19.83;;;9.70;99.90;;;;;;5033418;28;20042;-59
2022/04/14 05:35:21;;;;;;;32.85;17.83;;;9.60;99.90;;;;;;5038578;28;20033;-59
2022/04/14 05:37:47;;;;;;;26.35;16.95;;;9.70;99.90;;;;;;5037068;28;20092;-59
2022/04/14 05:40:13;;;;;;;24.65;14.70;;;9.80;99.90;;;;;;5036566;28;20030;-59
2022/04/14 05:42:39;;;;;;;30.45;18.85;;;9.90;99.90;;;;;;5034820;28;20411;-59
2022/04/14 05:45:05;;;;;;;24.77;16.27;;;9.90;99.90;;;;;;5029795;28;20332;-59
2022/04/14 05:47:31;;;;;;;24.33;15.93;;;10.00;99.90;;;;;;5038205;28;20032;-59
2022/04/14 05:49:56;;;;;;;22.13;14.60;;;10.20;99.90;;;;;;5036381;28;20033;-59
2022/04/14 05:52:22;;;;;;;23.80;15.77;;;10.30;99.90;;;;;;5036345;28;20025;-59
2022/04/14 05:54:48;;;;;;;21.23;14.95;;;10.50;99.90;;;;;;5036458;28;20037;-60
2022/04/14 05:57:15;;;;;;;21.00;12.93;;;10.50;99.90;;;;;;5032970;28;20482;-59
2022/04/14 05:59:41;;;;;;;17.52;12.43;;;10.70;99.90;;;;;;5036106;28;20033;-59
2022/04/14 06:02:08;;;;;;;20.42;12.55;;;10.90;99.90;;;;;;5037134;28;20493;-58
2022/04/14 06:04:35;;;;;;;18.73;10.75;;;11.10;99.90;;;;;;5036093;28;20501;-59
2022/04/14 06:07:01;;;;;;;16.13;9.82;;;11.30;99.90;;;;;;5036163;28;20078;-59
2022/04/14 06:09:26;;;;;;;15.38;10.10;;;11.30;99.90;;;;;;5035105;28;20549;-59
2022/04/14 06:11:52;;;;;;;13.65;9.40;;;11.30;99.90;;;;;;5032492;28;20026;-59
2022/04/14 06:14:18;;;;;;;16.13;9.32;;;11.80;99.90;;;;;;5037625;28;20091;-59
2022/04/14 06:16:43;;;;;;;13.45;8.20;;;12.80;99.90;;;;;;5035842;28;20409;-59
2022/04/14 06:19:09;;;;;;;14.50;8.55;;;13.60;99.90;;;;;;5034751;28;20029;-59
2022/04/14 06:21:35;;;;;;;12.38;8.57;;;13.80;99.90;;;;;;5034472;28;20029;-59
2022/04/14 06:24:01;;;;;;;11.88;7.22;;;14.40;99.90;;;;;;5030481;28;20109;-59
2022/04/14 06:26:27;;;;;;;12.45;7.82;;;14.40;99.90;;;;;;5037090;28;20109;-59
2022/04/14 06:28:53;;;;;;;12.95;7.20;;;14.20;99.90;;;;;;5035604;28;20116;-59
2022/04/14 06:31:18;;;;;;;13.80;8.48;;;14.30;99.90;;;;;;5035987;28;20018;-59
2022/04/14 06:33:44;;;;;;;13.48;8.07;;;14.30;99.90;;;;;;5035522;28;20073;-59
2022/04/14 06:36:11;;;;;;;11.88;7.68;;;15.20;99.90;;;;;;5030698;28;20041;-59
2022/04/14 06:38:37;;;;;;;16.35;10.68;;;16.10;99.90;;;;;;5035929;28;20029;-59
2022/04/14 06:41:02;;;;;;;11.80;9.00;;;16.60;99.90;;;;;;5034298;28;20025;-60
2022/04/14 06:43:30;;;;;;;11.45;9.57;;;17.20;99.90;;;;;;5035786;28;20017;-59
2022/04/14 06:45:58;;;;;;;11.85;8.07;;;17.30;99.90;;;;;;5035452;28;20415;-59
2022/04/14 06:48:23;;;;;;;9.45;7.75;;;18.30;99.90;;;;;;5033581;28;20053;-59
2022/04/14 06:50:49;;;;;;;13.57;7.88;;;18.70;99.90;;;;;;5032736;28;20065;-59
2022/04/14 06:53:16;;;;;;;11.05;7.50;;;18.50;99.90;;;;;;5036972;28;20029;-59
2022/04/14 06:55:45;;;;;;;10.30;7.65;;;19.80;99.90;;;;;;5035260;28;20044;-59
2022/04/14 06:58:11;;;;;;;9.07;7.43;;;20.50;99.90;;;;;;5035045;28;20351;-59
2022/04/14 07:00:37;;;;;;;10.38;7.97;;;21.30;99.90;;;;;;5033738;28;20040;-59
2022/04/14 07:03:02;;;;;;;21.65;17.17;;;20.50;99.90;;;;;;5014294;28;20491;-59
2022/04/14 07:05:28;;;;;;;13.40;10.48;;;20.40;99.90;;;;;;5036696;28;20117;-60
2022/04/14 07:07:54;;;;;;;9.93;7.13;;;21.00;99.90;;;;;;5034764;28;20482;-60
2022/04/14 07:10:20;;;;;;;9.32;6.63;;;21.30;99.90;;;;;;5034657;28;20041;-60
2022/04/14 07:12:46;;;;;;;12.10;6.75;;;21.40;99.90;;;;;;5034726;28;20130;-60
2022/04/14 07:15:13;;;;;;;8.23;5.32;;;21.50;99.90;;;;;;5031780;28;20044;-60
2022/04/14 07:17:38;;;;;;;13.38;6.30;;;21.80;99.90;;;;;;5034990;28;20391;-60
2022/04/14 07:20:07;;;;;;;9.45;5.70;;;22.70;99.90;;;;;;5035278;28;20033;-60
2022/04/14 07:22:46;;;;;;;9.15;6.20;;;22.20;99.90;;;;;;5034370;28;20018;-60
2022/04/14 07:25:12;;;;;;;11.02;5.63;;;22.90;99.90;;;;;;5034275;28;20029;-60
2022/04/14 07:27:38;;;;;;;8.35;5.45;;;23.20;99.90;;;;;;5034399;28;20389;-60
2022/04/14 07:30:05;;;;;;;8.88;5.22;;;23.10;99.90;;;;;;5030390;28;20034;-60
2022/04/14 07:32:37;;;;;;;7.93;5.07;;;23.20;99.90;;;;;;5043486;28;20117;-60
2022/04/14 07:35:04;;;;;;;9.32;4.80;;;21.60;99.90;;;;;;5032920;28;20490;-60
2022/04/14 07:37:30;;;;;;;8.48;4.55;;;21.60;99.90;;;;;;5033588;28;20104;-61
2022/04/14 07:39:56;;;;;;;9.40;4.50;;;23.20;99.90;;;;;;5031905;28;20037;-60
2022/04/14 07:42:22;;;;;;;8.95;4.47;;;22.20;99.90;;;;;;5030696;28;20022;-61
2022/04/14 07:44:48;;;;;;;9.90;4.30;;;24.80;99.90;;;;;;5032114;28;20039;-61
2022/04/14 07:47:14;;;;;;;9.73;4.22;;;23.10;99.90;;;;;;5036096;28;20033;-61
2022/04/14 07:49:39;;;;;;;9.43;4.20;;;24.10;99.90;;;;;;5034047;28;20021;-61
2022/04/14 07:52:05;;;;;;;10.50;5.00;;;24.20;99.90;;;;;;5034098;28;20029;-60
2022/04/14 07:54:34;;;;;;;8.25;4.43;;;24.30;99.90;;;;;;5033214;28;20036;-59
2022/04/14 07:57:00;;;;;;;8.88;4.47;;;24.50;99.90;;;;;;5030017;28;20032;-62
2022/04/14 07:59:26;;;;;;;10.32;4.43;;;25.60;99.10;;;;;;5036184;28;20116;-61
2022/04/14 08:01:52;;;;;;;7.95;4.13;;;26.30;98.00;;;;;;5033808;28;20625;-61
2022/04/14 08:04:18;;;;;;;9.50;4.75;;;26.50;96.60;;;;;;5033826;28;20025;-61
2022/04/14 08:06:44;;;;;;;6.82;3.92;;;28.00;94.60;;;;;;5033919;28;20083;-60
2022/04/14 08:09:09;;;;;;;9.80;4.07;;;29.00;93.20;;;;;;5029574;28;20037;-61
2022/04/14 08:11:35;;;;;;;7.82;3.53;;;27.00;93.90;;;;;;5035077;28;20025;-62
2022/04/14 08:14:01;;;;;;;10.35;4.10;;;27.30;95.70;;;;;;5034104;28;20100;-60
2022/04/14 08:16:26;;;;;;;9.98;4.28;;;30.30;91.90;;;;;;5033900;28;20490;-60
2022/04/14 08:18:52;;;;;;;7.95;3.83;;;29.60;91.40;;;;;;5032347;28;20037;-60
2022/04/14 08:21:19;;;;;;;7.15;3.42;;;30.10;90.80;;;;;;5029795;28;20033;-61
2022/04/14 08:23:44;;;;;;;7.10;3.95;;;27.80;91.10;;;;;;5032727;28;20382;-61
2022/04/14 08:26:11;;;;;;;10.50;3.22;;;27.90;92.40;;;;;;5035084;28;20025;-61
2022/04/14 08:28:41;;;;;;;8.25;3.47;;;27.00;92.90;;;;;;5033615;28;20041;-60
2022/04/14 08:31:10;;;;;;;9.43;3.20;;;29.60;90.00;;;;;;5033592;28;20087;-60
2022/04/14 08:33:37;;;;;;;8.13;3.28;;;30.10;87.90;;;;;;5033273;28;20103;-60
2022/04/14 08:36:12;;;;;;;5.03;2.80;;;30.10;85.40;;;;;;5012205;28;20553;-61
2022/04/14 08:38:44;;;;;;;6.20;3.00;;;30.10;88.20;;;;;;5043894;28;20508;-61
2022/04/14 08:41:13;;;;;;;5.88;3.03;;;32.40;82.00;;;;;;5034743;28;20462;-60
2022/04/14 08:43:58;;;;;;;6.97;2.95;;;31.70;82.70;;;;;;5033674;28;20441;-61
2022/04/14 08:46:25;;;;;;;6.57;3.08;;;31.70;90.30;;;;;;5034232;28;20104;-61
2022/04/14 08:48:51;;;;;;;6.70;2.97;;;32.30;79.20;;;;;;5033627;28;20036;-60
2022/04/14 08:51:19;;;;;;;6.72;3.00;;;30.00;80.20;;;;;;5030612;28;20036;-61
2022/04/14 08:53:45;;;;;;;7.75;2.97;;;30.00;81.10;;;;;;5032484;28;20044;-62
2022/04/14 08:56:12;;;;;;;6.85;2.75;;;30.30;82.40;;;;;;5034248;28;20030;-61
2022/04/14 08:58:38;;;;;;;7.43;2.92;;;;;;;;;;5032211;28;20383;-61
2022/04/14 09:01:05;;;;;;;5.85;2.92;;;30.90;80.00;;;;;;5031931;28;20025;-61
2022/04/14 09:03:31;;;;;;;5.05;2.47;;;30.30;83.00;;;;;;5031237;28;20400;-62
2022/04/14 09:05:57;;;;;;;5.10;2.47;;;30.60;81.20;;;;;;5029472;28;20159;-62
2022/04/14 09:08:24;;;;;;;7.20;2.70;;;30.40;82.00;;;;;;5035447;28;20033;-62
2022/04/14 09:10:50;;;;;;;6.40;2.80;;;30.70;79.80;;;;;;5033382;28;20107;-61
2022/04/14 09:13:17;;;;;;;5.60;2.25;;;30.00;79.30;;;;;;5033614;28;20061;-61
2022/04/14 09:15:43;;;;;;;7.18;2.92;;;30.80;78.40;;;;;;5033384;28;20090;-62
2022/04/14 09:18:09;;;;;;;6.75;2.60;;;31.10;77.60;;;;;;5029301;28;20411;-61
2022/04/14 09:20:37;;;;;;;15.85;5.15;;;31.90;78.60;;;;;;5036364;28;20057;-61
2022/04/14 09:23:25;;;;;;;7.18;3.20;;;32.10;77.30;;;;;;5036006;28;20029;-61
2022/04/14 09:26:14;;;;;;;16.63;3.65;;;32.40;74.30;;;;;;5036774;28;20548;-61
2022/04/14 09:29:03;;;;;;;6.28;2.42;;;29.30;81.20;;;;;;5036737;28;20041;-61
2022/04/14 09:31:30;;;;;;;6.78;3.03;;;26.00;89.90;;;;;;5036559;28;20045;-61
2022/04/14 09:33:56;;;;;;;7.43;2.50;;;28.40;91.10;;;;;;5036364;28;20047;-61
2022/04/14 09:36:23;;;;;;;5.97;2.70;;;28.80;87.10;;;;;;5033081;28;20465;-61
2022/04/14 09:38:56;;;;;;;9.93;3.95;;;29.50;85.60;;;;;;5035422;28;20061;-61
2022/04/14 09:41:48;;;;;;;5.38;2.35;;;30.10;84.60;;;;;;5036899;28;20109;-58
2022/04/14 09:44:14;;;;;;;5.38;2.63;;;29.90;83.70;;;;;;5038573;28;20037;-58
2022/04/14 09:46:47;;;;;;;7.38;2.50;;;29.60;83.90;;;;;;5036462;28;20425;-58
2022/04/14 09:49:15;;;;;;;5.97;2.42;;;30.00;84.00;;;;;;5036156;28;20379;-59
2022/04/14 09:51:46;;;;;;;6.07;2.28;;;30.40;83.70;;;;;;5036404;28;20086;-58
2022/04/14 09:54:17;;;;;;;5.20;2.30;;;28.90;85.00;;;;;;5031469;28;20115;-59
2022/04/14 09:56:45;;;;;;;7.63;2.60;;;29.30;85.10;;;;;;5035896;28;20079;-59
2022/04/14 09:59:12;;;;;;;6.70;2.40;;;28.90;84.50;;;;;;5037649;28;20037;-59
2022/04/14 10:01:38;;;;;;;8.15;2.85;;;28.50;87.30;;;;;;5036168;28;20112;-58
2022/04/14 10:04:06;;;;;;;7.38;2.40;;;28.50;85.70;;;;;;5035696;28;20037;-59
2022/04/14 10:06:32;;;;;;;7.82;2.65;;;28.90;85.10;;;;;;5034911;28;20025;-58
2022/04/14 10:08:57;;;;;;;6.15;2.55;;;28.30;87.30;;;;;;5031683;28;20442;-59
2022/04/14 10:11:30;;;;;;;7.25;2.38;;;27.50;84.40;;;;;;5036976;28;20029;-58
2022/04/14 10:14:10;;;;;;;6.85;2.53;;;26.50;88.30;;;;;;5035368;28;20142;-59
2022/04/14 10:16:39;;;;;;;8.63;3.00;;;27.00;87.80;;;;;;5034285;28;20132;-58
2022/04/14 10:19:08;;;;;;;8.68;3.00;;;26.90;87.60;;;;;;5033763;28;20068;-58
2022/04/14 10:21:37;;;;;;;6.90;2.60;;;25.50;89.40;;;;;;5035114;28;20518;-59
2022/04/14 10:24:05;;;;;;;6.72;2.63;;;27.10;86.90;;;;;;5031209;28;20042;-59
2022/04/14 10:26:33;;;;;;;5.70;2.30;;;27.70;85.90;;;;;;5048507;28;20436;-58
2022/04/14 10:29:01;;;;;;;8.30;2.30;;;27.00;85.10;;;;;;5035916;28;20029;-58
2022/04/14 10:31:28;;;;;;;6.55;2.55;;;28.30;87.10;;;;;;5034655;28;20033;-58
2022/04/14 10:33:54;;;;;;;6.60;2.13;;;29.20;83.40;;;;;;5033540;28;20112;-59
2022/04/14 10:36:20;;;;;;;7.65;2.58;;;26.80;85.90;;;;;;5033192;28;20042;-59
2022/04/14 10:38:49;;;;;;;5.65;2.25;;;27.50;83.00;;;;;;5033998;28;20155;-59
2022/04/14 10:41:19;;;;;;;9.05;2.60;;;28.10;82.40;;;;;;5036865;28;20026;-59
2022/04/14 10:43:46;;;;;;;5.93;2.40;;;26.10;84.90;;;;;;5035517;28;20517;-59
2022/04/14 10:46:15;;;;;;;6.97;2.33;;;24.20;91.80;;;;;;5034845;28;20027;-59
2022/04/14 10:48:44;;;;;;;5.57;2.22;;;24.20;90.20;;;;;;5035150;28;20056;-61
2022/04/14 10:51:26;;;;;;;8.02;3.13;;;25.70;87.30;;;;;;5031166;28;20022;-61
2022/04/14 10:53:56;;;;;;;8.25;2.80;;;25.70;86.90;;;;;;5033201;28;20025;-61
2022/04/14 10:56:43;;;;;;;7.20;2.38;;;25.60;87.30;;;;;;5035935;28;20435;-61
2022/04/14 10:59:16;;;;;;;4.18;2.20;;;26.10;86.40;;;;;;5035966;28;20406;-61
2022/04/14 11:01:50;;;;;;;7.30;2.13;;;25.70;88.60;;;;;;5034618;28;20116;-62
2022/04/14 11:04:23;;;;;;;8.63;2.42;;;27.30;87.40;;;;;;5035164;28;20042;-62
2022/04/14 11:06:51;;;;;;;;;;;28.70;83.50;;;;;;5035266;28;20025;-62
2022/04/14 11:09:38;;;;;;;5.63;2.40;;;28.00;85.90;;;;;;5032104;28;20004;-62
2022/04/14 11:12:05;;;;;;;6.25;2.22;;;29.00;84.30;;;;;;5013726;28;20025;-61
2022/04/14 11:14:47;;;;;;;8.07;2.40;;;29.20;83.00;;;;;;5036601;28;20029;-60
2022/04/14 11:17:37;;;;;;;8.43;2.60;;;28.80;81.20;;;;;;5035714;28;20029;-61
2022/04/14 11:20:19;;;;;;;8.13;2.40;;;27.90;82.40;;;;;;5035000;28;20987;-60
2022/04/14 11:23:24;;;;;;;6.32;2.28;;;27.40;82.60;;;;;;5034981;28;20029;-59
2022/04/14 11:25:50;;;;;;;7.55;2.35;;;25.50;85.00;;;;;;5034374;28;20038;-62
2022/04/14 11:28:27;;;;;;;8.38;2.85;;;25.70;87.40;;;;;;5034231;28;20108;-60
2022/04/14 11:31:22;;;;;;;5.28;2.00;;;25.50;85.10;;;;;;5033627;28;20036;-60
2022/04/14 11:33:53;;;;;;;5.90;2.13;;;25.70;82.60;;;;;;5027834;28;20037;-61
2022/04/14 11:36:25;;;;;;;6.20;2.10;;;27.90;83.30;;;;;;5029641;28;20629;-60
2022/04/14 11:39:02;;;;;;;5.07;2.20;;;27.20;81.30;;;;;;5032278;28;20029;-61
2022/04/14 11:41:41;;;;;;;6.88;2.00;;;24.40;86.10;;;;;;5035883;28;20036;-61
2022/04/14 11:44:10;;;;;;;5.20;2.35;;;24.60;87.80;;;;;;5033813;28;20500;-60
2022/04/14 11:46:39;;;;;;;9.93;2.45;;;24.60;88.20;;;;;;5033796;28;20026;-61
2022/04/14 11:49:06;;;;;;;6.40;2.20;;;24.90;88.20;;;;;;5034348;28;20097;-61
2022/04/14 11:51:32;;;;;;;6.30;2.40;;;26.00;83.00;;;;;;5033647;28;20498;-61
2022/04/14 11:53:58;;;;;;;6.50;2.10;;;27.00;80.60;;;;;;5029183;28;20076;-61
2022/04/14 11:56:25;;;;;;;5.40;2.30;;;27.50;80.90;;;;;;5036110;28;20068;-61
2022/04/14 11:58:52;;;;;;;5.32;2.15;;;27.30;81.40;;;;;;5033986;28;20394;-61
2022/04/14 12:01:19;;;;;;;7.68;2.33;;;27.70;82.50;;;;;;5034109;28;20495;-61
2022/04/14 12:03:45;;;;;;;6.40;2.17;;;28.00;78.60;;;;;;5034005;28;20504;-61
2022/04/14 12:06:16;;;;;;;5.75;2.15;;;27.00;77.80;;;;;;5030810;28;20116;-60
2022/04/14 12:08:53;;;;;;;7.90;2.17;;;26.70;78.30;;;;;;5033941;28;20025;-61
2022/04/14 12:11:20;;;;;;;8.68;2.30;;;26.40;79.20;;;;;;5034143;28;20036;-60
2022/04/14 12:13:46;;;;;;;4.32;1.90;;;24.80;81.20;;;;;;5032514;28;20028;-60
2022/04/14 12:16:12;;;;;;;6.97;2.47;;;26.30;80.90;;;;;;5032548;28;20034;-61
2022/04/14 12:18:40;;;;;;;6.78;2.47;;;27.00;83.40;;;;;;5033875;28;20087;-60
2022/04/14 12:21:07;;;;;;;8.52;2.22;;;25.50;80.70;;;;;;5014187;28;20060;-60
2022/04/14 12:23:33;;;;;;;6.28;2.42;;;27.00;80.70;;;;;;5035703;28;20390;-60
2022/04/14 12:26:00;;;;;;;5.53;2.17;;;25.80;81.00;;;;;;5033856;28;20026;-60
2022/04/14 12:28:26;;;;;;;8.95;2.45;;;25.10;81.60;;;;;;5033859;28;20026;-60
2022/04/14 12:30:52;;;;;;;6.88;2.40;;;24.40;83.60;;;;;;5033872;28;20537;-60
2022/04/14 12:33:28;;;;;;;6.22;2.58;;;23.60;83.30;;;;;;5030948;28;20021;-60
2022/04/14 12:36:09;;;;;;;6.22;2.33;;;23.90;83.10;;;;;;5030668;28;20048;-60
2022/04/14 12:38:47;;;;;;;5.80;2.28;;;24.40;82.20;;;;;;5043441;28;20041;-60
2022/04/14 12:41:19;;;;;;;9.00;2.30;;;24.60;81.30;;;;;;5035130;28;20064;-60
2022/04/14 12:43:47;;;;;;;8.27;2.65;;;24.90;80.20;;;;;;5033302;28;20050;-61